Terminal Aerodrome Forecast
Issued by NWS

Home | Current Version | Previous Version | Text Only | Print | Product List | Glossary Off
Versions: 1 2 3 4 5 6 7 8 9 10 11 12 13 14 15

000
FTUS43 KBIS 250914 AAA
TAFJMS
TAF AMD
KJMS 250914Z 2509/2606 00000KT P6SM SKC
      TEMPO 2509/2512 5SM BR
     FM251700 13006KT P6SM FEW250=

USA.gov is the U.S. government's official web portal to all federal, state and local government web resources and services.